Nearby METAR Reports

 

KGRB - Ashwaubenon, Wisconsin, USA
Distance from station: NW 5mi, 8km
Updated: Sun, 16-May-2021 4:53pm CDT
Mostly cloudy
Mostly cloudy
 Wind from E
Wind: E 10 mph , 17 km/h
Temperature: 66°F , 19°C
Dew Point: 52°F , 11°C
Humidity: 60%
Barometer: 30.13 inHg , 1020.3 hPa
Clouds: Mostly cloudy
Visibility: 10 miles , 16 km
Cloud details: Few Clouds 4100 ft
Mostly cloudy 5000 ft
Mostly cloudy 6500 ft
2021/05/16 21:53 KGRB 162153Z 10009KT 10SM FEW041 BKN050 BKN065 19/11 A3013 RMK AO2 SLP204 T01890106
KATW - Appleton/Outagam, Wisconsin, USA
Distance from station: WSW 26mi, 42km
Updated: Sun, 16-May-2021 4:45pm CDT
Partly cloudy
Partly cloudy
 Wind from SSE
Wind: SSE 8 mph , 13 km/h
Temperature: 70°F , 21°C
Dew Point: 46°F , 8°C
Humidity: 43%
Barometer: 30.11 inHg , 1019.6 hPa
Clouds: Partly cloudy
Visibility: 10 miles , 16 km
Cloud details: Partly cloudy 4000 ft
2021/05/16 21:45 KATW 162145Z 16007KT 10SM SCT040 21/08 A3011
 
KMTW - Manitowac Muni, Wisconsin, USA
Distance from station: SE 29mi, 47km
Updated: Sun, 16-May-2021 5:05pm CDT
Partly cloudy
Partly cloudy
 Wind from SE
Wind: SE 9 mph , 15 km/h
Temperature: 54°F , 12°C
Dew Point: 54°F , 12°C
Humidity: 100%
Barometer: 30.17 inHg , 1021.7 hPa
Clouds: Partly cloudy
Visibility: 7 miles , 11 km
Cloud details: Partly cloudy 400 ft
2021/05/16 22:05 KMTW 162205Z AUTO 13008KT 7SM SCT004 12/12 A3017 RMK AO2
KOCQ - Oconto, Wisconsin, USA
Distance from station: NNE 30mi, 49km
Updated: Sun, 16-May-2021 5:15pm CDT
Clear
Clear
 Wind from SE
Wind: SE 12 mph , 19 km/h
Temperature: 64°F , 18°C
Dew Point: 50°F , 10°C
Humidity: 60%
Barometer: 30.14 inHg , 1020.7 hPa
Clouds: Clear
Visibility: 10 miles , 16 km
2021/05/16 22:15 KOCQ 162215Z AUTO 14010KT 10SM CLR 18/10 A3014 RMK AO1 T01780099
 
KEZS - Shawano Muni, Wisconsin, USA
Distance from station: NW 35mi, 56km
Updated: Sun, 16-May-2021 5:15pm CDT
Clear
Clear
 Wind from E
Wind: E 6 mph , 9 km/h
Temperature: 70°F , 21°C
Dew Point: 48°F , 9°C
Humidity: 46%
Barometer: 30.11 inHg , 1019.6 hPa
Clouds: Clear
Visibility: 10 miles , 16 km
2021/05/16 22:15 KEZS 162215Z AUTO 09005KT 10SM CLR 21/09 A3011 RMK AO2 T02130092
KCLI - Clintonville, Wisconsin, USA
Distance from station: WNW 36mi, 58km
Updated: Sun, 16-May-2021 5:15pm CDT
Partly cloudy
Partly cloudy
 Wind from S
Wind: S 6 mph , 9 km/h
Temperature: 70°F , 21°C
Dew Point: 43°F , 6°C
Humidity: 38%
Barometer: 30.11 inHg , 1019.6 hPa
Clouds: Partly cloudy
Visibility: 10 miles , 16 km
Cloud details: Partly cloudy 6000 ft
2021/05/16 22:15 KCLI 162215Z AUTO 17005KT 10SM SCT060 21/06 A3011 RMK AO2 T02110063
 
KOSH - Oshkosh, Wisconsin, USA
Distance from station: SW 41mi, 66km
Updated: Sun, 16-May-2021 4:53pm CDT
Clear
Clear
 Wind from E
Wind: E 8 mph , 13 km/h
Temperature: 68°F , 20°C
Dew Point: 48°F , 9°C
Humidity: 49%
Barometer: 30.11 inHg , 1019.6 hPa
Clouds: Clear
Visibility: 10 miles , 16 km
2021/05/16 21:53 KOSH 162153Z 10007KT 10SM CLR 20/09 A3011 RMK AO2 SLP193 T02000094 $
KSUE - Sturgeon Bay, Wisconsin, USA
Distance from station: NE 42mi, 68km
Updated: Sun, 16-May-2021 4:56pm CDT
Clear
Clear
 Wind from SE
Wind: SE 12 mph , 19 km/h
Temperature: 61°F , 16°C
Dew Point: 46°F , 8°C
Humidity: 59%
Barometer: 30.16 inHg , 1021.3 hPa
Clouds: Clear
Visibility: 9 miles , 14 km
2021/05/16 21:56 KSUE 162156Z AUTO 13010KT 9SM CLR 16/08 A3016 RMK AO2 SLP216 T01560083 $
 
KSBM - Sheboygan, Wisconsin, USA
Distance from station: SSE 46mi, 75km
Updated: Sun, 16-May-2021 4:53pm CDT
Clear
Clear
 Wind from S
Wind: S 13 mph , 20 km/h
Temperature: 63°F , 17°C
Dew Point: 52°F , 11°C
Humidity: 68%
Barometer: 30.16 inHg , 1021.3 hPa
Clouds: Clear
Visibility: 10 miles , 16 km
2021/05/16 21:53 KSBM 162153Z AUTO 17011KT 10SM CLR 17/11 A3016 RMK AO2 SLP216 T01670111
KPCZ - Waupaca, Wisconsin, USA
Distance from station: W 48mi, 77km
Updated: Sun, 16-May-2021 5:15pm CDT
Mostly cloudy
Mostly cloudy
 Wind from ESE
Wind: ESE 10 mph , 17 km/h
Temperature: 75°F , 24°C
Dew Point: 45°F , 7°C
Humidity: 34%
Barometer: 30.10 inHg , 1019.3 hPa
Clouds: Mostly cloudy
Visibility: 10 miles , 16 km
Cloud details: Mostly cloudy 5500 ft
Mostly cloudy 7500 ft
2021/05/16 22:15 KPCZ 162215Z AUTO 12009KT 110V210 10SM BKN055 BKN075 24/07 A3010 RMK AO2 T02370071